Corrientes, Argentina

8:11 PM ART on February 26, 2015 (GMT -0300)
Corrientes | Change Station
CLOSE
Current Station
Airport
Location: Corrientes,
Elevation: 203 ft
Nearby Weather Stations

Elev 203 ft 27.45 °S, 58.76 °W | Updated 11 minutes ago

Scattered Clouds
Scattered Clouds
79 °F
Feels Like 79 °F
N
5
Wind Variable Wind from ESE

Today
High -- | Low -- °F
--% Chance of Precip.
Yesterday
High -- | Low -- °F
Precip. -- in
6:45 AM 7:29 PM
Waxing Gibbous, 63% visible
Pressure 29.74 in
Visibility 5.6 miles
Clouds Few 3500 ft
Scattered Clouds 20000 ft
Dew Point 72 °F
Humidity 78%
Rainfall 0.00 in
Snow Depth Not available.
UV 0 out of 12
Pollen Not available.
Air Quality Not available.
Flu Activity Not available.
METAR SARC 262300Z 11004KT 9000 FEW035TCU SCT200 26/22 Q1007

More Conditions Fewer Conditions

Pressure 29.74 in
Visibility 5.6 miles
Clouds Few 3500 ft
Scattered Clouds 20000 ft
Dew Point 72 °F
Humidity 78%
Rainfall 0.00 in
Snow Depth Not available.
UV 0 out of 12
Pollen Not available.
Air Quality Not available.
Flu Activity Not available.
METAR SARC 262300Z 11004KT 9000 FEW035TCU SCT200 26/22 Q1007

More Conditions Fewer Conditions

10-Day Weather Forecast

Almanac

Astronomy

Feb. 26, 2015 Rise Set
Actual Time
Civil Twilight
Nautical Twilight
Astronomical Twilight
Moon
Length of Visible Light
Length of Day
Tomorrow will be .
, % of the Moon is Illuminated

Today's Extremes

Country Highs Country Lows

Community

WunderPhotos

Upload Photos

1,800,523 photos uploaded!

WunderBlogs® & News

Nearby

Air Quality

  Air Quality AQ Index Pollutant
Not available.

Snow Depth

Station Depth Elevation

Earthquake Activity

City Distance Mag. Time & Date
Minimum magnitude displayed is 2.5.

Coastal Water Temperatures

Place Temperature

Nearby Weather Stations